createdAt,value
2022-09-15T00:01:44.296Z,19.51
2022-09-15T00:04:46.796Z,19.54
2022-09-15T00:07:49.016Z,19.55
2022-09-15T00:11:04.051Z,19.50
2022-09-15T00:14:08.223Z,19.58
2022-09-15T00:17:10.999Z,19.55
2022-09-15T00:20:13.302Z,19.61
2022-09-15T00:23:17.937Z,19.59
2022-09-15T00:26:22.989Z,19.36
2022-09-15T00:29:25.522Z,19.48
2022-09-15T00:32:28.168Z,19.42
2022-09-15T00:35:30.764Z,19.39
2022-09-15T00:38:34.193Z,19.36
2022-09-15T00:41:39.334Z,19.34
2022-09-15T00:45:00.208Z,19.38
2022-09-15T00:48:04.786Z,19.37
2022-09-15T00:51:10.229Z,19.44
2022-09-15T00:54:21.986Z,19.49
2022-09-15T00:57:33.997Z,19.38
2022-09-15T01:00:36.869Z,19.41
2022-09-15T01:03:39.477Z,19.45
2022-09-15T01:06:54.029Z,19.48
2022-09-15T01:10:00.531Z,19.43
2022-09-15T01:13:08.749Z,19.47
2022-09-15T01:16:35.744Z,19.41
2022-09-15T01:20:29.368Z,19.38
2022-09-15T01:23:34.361Z,19.37
2022-09-15T01:26:46.532Z,19.30
2022-09-15T01:30:18.144Z,19.27
2022-09-15T01:33:57.295Z,19.22
2022-09-15T01:37:06.235Z,19.20
2022-09-15T01:40:10.710Z,19.18
2022-09-15T01:43:14.992Z,19.20
2022-09-15T01:46:21.841Z,19.13
2022-09-15T01:49:30.371Z,19.11
2022-09-15T01:52:33.712Z,19.10
2022-09-15T01:55:43.094Z,19.18
2022-09-15T01:58:45.773Z,19.17
2022-09-15T02:02:12.701Z,19.15
2022-09-15T02:05:30.239Z,19.13
2022-09-15T02:08:52.433Z,19.14
2022-09-15T02:12:07.855Z,19.09
2022-09-15T02:15:15.034Z,19.09
2022-09-15T02:18:30.960Z,19.11
2022-09-15T02:21:36.380Z,19.05
2022-09-15T02:24:44.220Z,19.03
2022-09-15T02:27:52.696Z,18.99
2022-09-15T02:30:58.492Z,19.04
2022-09-15T02:34:07.857Z,18.96
2022-09-15T02:37:11.585Z,18.92
2022-09-15T02:40:14.017Z,18.90
2022-09-15T02:43:18.861Z,18.83
2022-09-15T02:46:22.759Z,18.85
2022-09-15T02:49:25.305Z,18.83
2022-09-15T02:52:27.549Z,18.82
2022-09-15T02:55:30.263Z,18.79
2022-09-15T02:58:35.688Z,18.80
2022-09-15T03:01:39.300Z,18.79
2022-09-15T03:04:42.099Z,18.79
2022-09-15T03:07:44.921Z,18.75
2022-09-15T03:10:47.193Z,18.74
2022-09-15T03:13:54.198Z,18.74
2022-09-15T03:16:58.344Z,18.69
2022-09-15T03:20:01.189Z,18.70
2022-09-15T03:23:03.490Z,18.68
2022-09-15T03:26:09.130Z,18.69
2022-09-15T03:29:11.449Z,18.71
2022-09-15T03:32:14.053Z,18.73
2022-09-15T03:35:16.356Z,18.77
2022-09-15T03:38:19.596Z,18.76
2022-09-15T03:41:21.799Z,18.70
2022-09-15T03:44:24.662Z,18.72
2022-09-15T03:58:31.040Z,18.90
2022-09-15T04:01:35.798Z,18.91
2022-09-15T04:04:39.116Z,18.92
2022-09-15T04:07:42.339Z,18.86
2022-09-15T04:10:45.875Z,18.79
2022-09-15T04:13:52.662Z,18.81
2022-09-15T04:16:56.212Z,18.83
2022-09-15T04:19:58.978Z,18.81
2022-09-15T04:23:02.452Z,18.80
2022-09-15T04:26:12.006Z,18.76
2022-09-15T04:29:16.674Z,18.71
2022-09-15T04:32:20.787Z,18.66
2022-09-15T04:35:24.103Z,18.66
2022-09-15T04:38:26.979Z,18.67
2022-09-15T04:41:30.565Z,18.71
2022-09-15T04:44:35.123Z,18.74
2022-09-15T04:47:38.393Z,18.84
2022-09-15T04:50:41.176Z,18.95
2022-09-15T04:53:44.801Z,19.16
2022-09-15T04:56:49.074Z,19.28
2022-09-15T04:59:52.315Z,19.35
2022-09-15T05:02:55.072Z,19.42
2022-09-15T05:05:58.417Z,19.54
2022-09-15T05:09:01.334Z,19.51
2022-09-15T05:12:04.645Z,19.57
2022-09-15T05:15:07.929Z,19.67
2022-09-15T05:18:10.771Z,19.76
2022-09-15T05:21:15.369Z,19.81
2022-09-15T05:24:18.162Z,19.88
2022-09-15T05:27:20.656Z,19.95
2022-09-15T05:30:37.131Z,19.93
2022-09-15T05:33:40.957Z,19.82
2022-09-15T05:36:44.101Z,19.79
2022-09-15T05:39:47.055Z,19.85
2022-09-15T05:42:51.481Z,19.87
2022-09-15T05:45:55.354Z,20.01
2022-09-15T05:48:59.305Z,20.09
2022-09-15T05:52:03.888Z,20.19
2022-09-15T05:55:07.455Z,20.10
2022-09-15T05:58:18.438Z,20.29
2022-09-15T06:17:39.020Z,21.04
2022-09-15T06:26:07.553Z,21.16
2022-09-15T06:29:35.690Z,21.07
2022-09-15T06:32:48.122Z,21.31
2022-09-15T06:35:51.796Z,21.33
2022-09-15T06:38:55.082Z,21.34
2022-09-15T06:42:02.796Z,21.33
2022-09-15T06:45:07.132Z,21.46
2022-09-15T06:48:23.918Z,21.44
2022-09-15T06:51:31.414Z,21.35
2022-09-15T06:54:33.988Z,21.39
2022-09-15T06:57:37.067Z,21.43
2022-09-15T07:00:39.604Z,21.51
2022-09-15T07:03:44.485Z,21.65
2022-09-15T07:07:07.190Z,21.74
2022-09-15T07:10:35.017Z,21.77
2022-09-15T07:13:40.215Z,21.93
2022-09-15T07:16:43.833Z,22.05
2022-09-15T07:20:19.210Z,22.19
2022-09-15T07:23:24.133Z,22.66
2022-09-15T07:26:34.373Z,23.69
2022-09-15T07:30:17.626Z,24.38
2022-09-15T07:33:27.696Z,24.87
2022-09-15T07:40:26.052Z,25.42
2022-09-15T07:43:34.388Z,25.24
2022-09-15T07:47:02.131Z,24.90
2022-09-15T08:12:23.792Z,24.44
2022-09-15T08:15:27.433Z,24.61
2022-09-15T08:18:30.565Z,24.74
2022-09-15T08:21:33.007Z,24.93
2022-09-15T08:24:35.471Z,25.14
2022-09-15T08:27:37.991Z,25.15
2022-09-15T08:30:40.100Z,25.26
2022-09-15T08:33:45.720Z,25.38
2022-09-15T08:36:48.215Z,25.50
2022-09-15T08:39:51.614Z,25.81
2022-09-15T08:42:58.300Z,26.01
2022-09-15T08:46:06.102Z,26.05
2022-09-15T08:49:23.479Z,26.03
2022-09-15T08:52:54.256Z,25.87
2022-09-15T08:56:00.370Z,25.78
2022-09-15T08:59:05.613Z,25.72
2022-09-15T09:02:26.800Z,25.71
2022-09-15T09:06:05.598Z,25.83
2022-09-15T09:09:48.498Z,25.84
2022-09-15T09:13:30.970Z,25.97
2022-09-15T09:17:10.029Z,26.18
2022-09-15T09:20:54.520Z,26.44
2022-09-15T09:24:03.872Z,26.75
2022-09-15T09:27:13.195Z,26.49
2022-09-15T09:30:18.984Z,26.35
2022-09-15T09:33:47.923Z,26.21
2022-09-15T09:37:09.167Z,26.19
2022-09-15T09:40:15.781Z,26.41
2022-09-15T09:43:18.689Z,26.45
2022-09-15T09:46:22.157Z,26.70
2022-09-15T09:49:26.385Z,27.10
2022-09-15T09:52:39.485Z,27.59
2022-09-15T09:55:46.145Z,27.70
2022-09-15T09:58:49.090Z,27.78
2022-09-15T10:02:11.467Z,27.94
2022-09-15T10:05:19.664Z,28.11
2022-09-15T10:08:21.794Z,28.17
2022-09-15T10:11:46.159Z,28.34
2022-09-15T10:14:52.646Z,28.26
2022-09-15T10:17:56.960Z,28.17
2022-09-15T10:21:00.818Z,27.78
2022-09-15T10:24:34.659Z,27.68
2022-09-15T10:27:37.371Z,27.67
2022-09-15T10:31:22.818Z,27.50
2022-09-15T10:34:40.996Z,27.73
2022-09-15T10:37:45.377Z,28.29
2022-09-15T10:41:18.403Z,28.92
2022-09-15T10:44:59.436Z,29.19
2022-09-15T10:48:37.041Z,29.51
2022-09-15T10:52:08.233Z,29.31
2022-09-15T10:55:53.034Z,28.54
2022-09-15T10:59:34.628Z,28.42
2022-09-15T11:03:28.702Z,28.24
2022-09-15T11:11:28.226Z,27.64
2022-09-15T11:23:49.226Z,27.30
2022-09-15T11:26:58.105Z,27.09
2022-09-15T11:30:24.529Z,26.96
2022-09-15T11:34:03.978Z,26.73
2022-09-15T11:37:25.599Z,26.64
2022-09-15T11:40:33.691Z,26.40
2022-09-15T11:43:45.983Z,26.25
2022-09-15T11:47:28.280Z,26.15
2022-09-15T12:50:39.200Z,26.01
2022-09-15T12:54:19.268Z,25.93
2022-09-15T12:57:25.685Z,25.62
2022-09-15T16:48:34.527Z,18.41
2022-09-15T16:51:37.816Z,18.39
2022-09-15T16:54:40.879Z,18.32
2022-09-15T16:57:44.000Z,18.31
2022-09-15T17:00:48.497Z,18.33
2022-09-15T17:03:51.748Z,18.19
2022-09-15T17:06:54.685Z,18.12
2022-09-15T17:09:57.901Z,18.08
2022-09-15T17:13:01.702Z,17.92
2022-09-15T17:16:04.945Z,17.92
2022-09-15T17:19:07.966Z,17.93
2022-09-15T17:22:11.397Z,17.97
2022-09-15T17:25:22.195Z,17.98
2022-09-15T17:28:30.598Z,17.93
2022-09-15T17:31:34.946Z,17.86
2022-09-15T17:34:38.298Z,17.85
2022-09-15T17:37:41.193Z,17.86
2022-09-15T17:40:44.582Z,17.91
2022-09-15T17:43:47.766Z,17.79
2022-09-15T17:46:51.683Z,17.68
2022-09-15T17:49:55.052Z,17.71
2022-09-15T17:52:59.129Z,17.68
2022-09-15T17:56:02.194Z,17.64
2022-09-15T17:59:05.629Z,17.63
2022-09-15T18:02:19.599Z,17.59
2022-09-15T18:05:26.822Z,17.48
2022-09-15T18:08:29.664Z,17.42
2022-09-15T18:11:33.133Z,17.38
2022-09-15T18:14:36.152Z,17.48
2022-09-15T18:17:39.491Z,17.51
2022-09-15T18:20:42.991Z,17.52
2022-09-15T18:23:46.142Z,17.53
2022-09-15T18:26:49.261Z,17.53
2022-09-15T18:29:52.126Z,17.55
2022-09-15T18:32:54.324Z,17.60
2022-09-15T18:35:59.003Z,17.58
2022-09-15T18:39:01.223Z,17.57
2022-09-15T18:42:03.935Z,17.57
2022-09-15T18:45:07.836Z,17.56
2022-09-15T18:48:12.846Z,17.53
2022-09-15T18:51:23.885Z,17.55
2022-09-15T18:54:34.703Z,17.61
2022-09-15T18:57:38.886Z,17.49
2022-09-15T19:00:41.879Z,17.41
2022-09-15T19:03:44.337Z,17.39
2022-09-15T19:06:46.850Z,17.36
2022-09-15T19:09:56.206Z,17.35
2022-09-15T19:12:59.017Z,17.34
2022-09-15T19:16:06.097Z,17.33
2022-09-15T19:19:08.629Z,17.30
2022-09-15T19:22:10.808Z,17.30
2022-09-15T19:25:13.741Z,17.28
2022-09-15T19:28:15.899Z,17.29
2022-09-15T19:31:18.441Z,17.35
2022-09-15T19:34:20.909Z,17.37
2022-09-15T19:37:23.590Z,17.29
2022-09-15T19:40:25.876Z,17.25
2022-09-15T19:43:28.804Z,17.25
2022-09-15T19:46:31.561Z,17.21
2022-09-15T19:49:34.143Z,17.25
2022-09-15T19:52:36.330Z,17.29
2022-09-15T19:55:38.808Z,17.26
2022-09-15T19:58:41.070Z,17.27
2022-09-15T20:01:43.520Z,17.32
2022-09-15T20:04:46.572Z,17.28
2022-09-15T20:07:48.903Z,17.30
2022-09-15T20:10:51.767Z,17.29
2022-09-15T20:13:54.615Z,17.27
2022-09-15T20:17:00.380Z,17.20
2022-09-15T20:20:03.769Z,17.21
2022-09-15T20:23:06.276Z,17.21
2022-09-15T20:26:10.815Z,17.25
2022-09-15T20:29:13.506Z,17.27
2022-09-15T20:32:15.669Z,17.30
2022-09-15T20:35:18.226Z,17.23
2022-09-15T20:38:21.036Z,17.20
2022-09-15T20:41:26.393Z,17.23
2022-09-15T20:44:28.540Z,17.20
2022-09-15T20:47:31.026Z,17.28
2022-09-15T20:50:33.155Z,17.27
2022-09-15T20:53:36.556Z,17.28
2022-09-15T20:56:38.738Z,17.28
2022-09-15T20:59:41.194Z,17.34
2022-09-15T21:02:43.413Z,17.32
2022-09-15T21:05:46.084Z,17.33
2022-09-15T21:08:49.072Z,17.32
2022-09-15T21:11:53.581Z,17.35
2022-09-15T21:14:57.873Z,17.33
2022-09-15T21:18:01.676Z,17.40
2022-09-15T21:21:07.316Z,17.39
2022-09-15T21:24:10.047Z,17.51
2022-09-15T21:27:27.547Z,17.51
2022-09-15T21:30:30.013Z,17.59
2022-09-15T21:33:32.867Z,17.56
2022-09-15T21:36:35.851Z,17.49
2022-09-15T21:39:37.947Z,17.53
2022-09-15T21:42:40.460Z,17.54
2022-09-15T21:45:42.757Z,17.55
2022-09-15T21:48:47.329Z,17.46
2022-09-15T21:51:49.710Z,17.41
2022-09-15T21:54:52.687Z,17.40
2022-09-15T21:57:55.061Z,17.43
2022-09-15T22:00:57.567Z,17.39
2022-09-15T22:04:02.217Z,17.39
2022-09-15T22:07:04.438Z,17.42
2022-09-15T22:10:07.448Z,17.42
2022-09-15T22:13:11.726Z,17.37
2022-09-15T22:16:17.922Z,17.31
2022-09-15T22:19:20.197Z,17.29
2022-09-15T22:22:23.624Z,17.26
2022-09-15T22:25:26.481Z,17.24
2022-09-15T22:28:29.059Z,17.26
2022-09-15T22:31:31.460Z,17.27
2022-09-15T22:34:33.988Z,17.28
2022-09-15T22:37:36.270Z,17.29
2022-09-15T22:40:38.875Z,17.24
2022-09-15T22:43:42.421Z,17.23
2022-09-15T22:46:44.889Z,17.25
2022-09-15T22:49:47.144Z,17.18
2022-09-15T22:52:50.868Z,17.29
2022-09-15T22:56:04.973Z,17.24
2022-09-15T22:59:07.487Z,17.15
2022-09-15T23:02:09.951Z,17.16
2022-09-15T23:05:12.778Z,17.17
2022-09-15T23:08:15.129Z,17.21
2022-09-15T23:11:17.667Z,17.12
2022-09-15T23:14:19.826Z,17.12
2022-09-15T23:17:22.867Z,17.09
2022-09-15T23:20:25.066Z,17.06
2022-09-15T23:23:28.224Z,17.00
2022-09-15T23:26:30.435Z,16.95
2022-09-15T23:29:33.375Z,17.01
2022-09-15T23:32:35.670Z,17.05
2022-09-15T23:35:38.127Z,16.88
2022-09-15T23:38:42.747Z,16.93
2022-09-15T23:41:45.221Z,16.99
2022-09-15T23:44:47.384Z,16.96
2022-09-15T23:47:49.946Z,17.02
2022-09-15T23:50:52.281Z,17.00
2022-09-15T23:53:55.218Z,16.95
2022-09-15T23:56:57.403Z,17.01
2022-09-15T23:59:59.888Z,16.89
